Time;durP1;ratioP1;P1;durP2;ratioP2;P2;SDS_P1;SDS_P2;PMS_P1;PMS_P2;Temp;Humidity;BMP_temperature;BMP_pressure;BME280_temperature;BME280_humidity;BME280_pressure;Samples;Min_cycle;Max_cycle;Signal;HPM_P1;HPM_P2
2022/05/11 00:01:29;;;;;;;;;8.33;7.00;;;;;19.20;52.59;100854.63;5077118;27;46759;-66
2022/05/11 00:03:58;;;;;;;;;7.00;7.00;;;;;19.22;52.43;100858.03;5077156;27;45459;-70
2022/05/11 00:06:25;;;;;;;;;6.00;6.00;;;;;19.14;52.87;100852.44;5059657;27;46727;-66
2022/05/11 00:08:52;;;;;;;;;5.67;5.67;;;;;19.15;52.47;100857.75;5069758;28;45374;-64
2022/05/11 00:11:17;;;;;;;;;5.67;5.00;;;;;19.06;52.13;100858.53;5059662;28;45437;-65
2022/05/11 00:13:44;;;;;;;;;7.67;6.33;;;;;19.07;52.25;100845.91;5067646;28;45477;-62
2022/05/11 00:16:10;;;;;;;;;7.33;7.33;;;;;19.11;52.58;100844.63;5060086;28;46096;-70
2022/05/11 00:18:36;;;;;;;;;4.00;4.00;;;;;19.04;52.55;100838.94;5067319;27;45925;-61
2022/05/11 00:21:02;;;;;;;;;7.33;6.00;;;;;19.09;52.46;100847.47;5056214;28;45661;-66
2022/05/11 00:23:27;;;;;;;;;7.33;6.67;;;;;19.06;52.39;100836.97;5076735;27;45509;-67
2022/05/11 00:25:52;;;;;;;;;7.67;6.33;;;;;19.05;52.46;100843.34;5069240;28;45477;-68
2022/05/11 00:28:18;;;;;;;;;9.00;7.67;;;;;19.00;52.88;100837.50;5060892;27;45552;-68
2022/05/11 00:30:43;;;;;;;;;9.00;5.00;;;;;18.84;53.49;100821.81;5060989;28;45633;-67
2022/05/11 00:33:13;;;;;;;;;6.33;6.33;;;;;18.80;52.71;100820.38;5064033;28;45224;-66
2022/05/11 00:35:38;;;;;;;;;5.00;5.00;;;;;18.85;53.52;100828.06;5076081;27;45533;-67
2022/05/11 00:38:04;;;;;;;;;7.00;5.33;;;;;18.73;53.76;100803.03;5075982;27;45373;-64
2022/05/11 00:40:29;;;;;;;;;6.33;6.33;;;;;18.74;54.15;100812.81;5077081;27;45394;-66
2022/05/11 00:42:55;;;;;;;;;9.00;6.00;;;;;18.77;52.98;100815.25;5068592;27;45484;-64
2022/05/11 00:45:20;;;;;;;;;6.33;6.00;;;;;18.75;53.62;100817.25;5049749;28;46062;-65
2022/05/11 00:47:57;;;;;;;;;6.67;5.33;;;;;18.81;53.00;100811.31;5067995;27;45539;-68
2022/05/11 00:50:26;;;;;;;;;10.00;7.00;;;;;18.82;53.26;100796.84;5070421;28;45257;-68
2022/05/11 00:53:00;;;;;;;;;4.67;4.67;;;;;18.86;52.92;100797.41;5074821;27;45743;-63
2022/05/11 00:55:30;;;;;;;;;8.33;8.33;;;;;18.90;52.83;100798.03;5072427;28;46168;-65
2022/05/11 00:58:02;;;;;;;;;7.00;7.00;;;;;18.94;52.68;100794.06;5057768;28;45582;-63
2022/05/11 01:00:28;;;;;;;;;6.00;5.33;;;;;18.77;53.00;100774.84;5076227;27;45777;-61
2022/05/11 01:02:59;;;;;;;;;9.67;5.67;;;;;18.82;52.87;100786.06;5076140;27;45637;-61
2022/05/11 01:05:25;;;;;;;;;9.67;5.67;;;;;18.86;53.22;100794.72;5076680;27;46365;-63
2022/05/11 01:07:53;;;;;;;;;6.67;5.67;;;;;18.73;53.47;100773.38;5067148;27;45534;-66
2022/05/11 01:10:19;;;;;;;;;4.33;3.67;;;;;18.69;53.98;100780.03;5059179;27;45512;-60
2022/05/11 01:12:49;;;;;;;;;10.00;6.33;;;;;18.67;53.54;100768.53;5074730;27;45586;-65
2022/05/11 01:15:18;;;;;;;;;4.00;4.00;;;;;18.68;53.85;100772.94;5065071;28;45423;-67
2022/05/11 01:17:45;;;;;;;;;8.00;6.00;;;;;18.68;53.87;100775.63;5055918;28;46091;-64
2022/05/11 01:20:16;;;;;;;;;7.00;7.00;;;;;18.60;53.98;100764.63;5056761;28;45346;-66
2022/05/11 01:22:58;;;;;;;;;5.00;5.00;;;;;18.58;53.99;100772.00;5066304;27;45277;-63
2022/05/11 01:25:24;;;;;;;;;5.00;5.00;;;;;18.52;54.23;100764.47;5071006;28;46270;-64
2022/05/11 01:28:05;;;;;;;;;7.00;5.67;;;;;18.50;54.00;100761.06;5065802;28;45321;-64
2022/05/11 01:30:31;;;;;;;;;7.33;6.33;;;;;18.49;54.14;100764.72;5071555;27;45378;-66
2022/05/11 01:32:57;;;;;;;;;7.00;6.00;;;;;18.44;54.64;100758.88;5068397;28;45386;-63
2022/05/11 01:35:41;;;;;;;;;8.00;7.00;;;;;18.36;54.67;100767.63;5057418;28;46867;-66
2022/05/11 01:38:31;;;;;;;;;12.00;6.00;;;;;18.34;54.75;100757.94;5036931;28;45340;-64
2022/05/11 01:40:57;;;;;;;;;9.00;6.67;;;;;18.31;54.44;100759.06;5052198;27;45440;-70
2022/05/11 01:43:30;;;;;;;;;6.33;5.67;;;;;18.34;54.71;100760.66;5052595;28;45799;-65
2022/05/11 01:45:56;;;;;;;;;9.00;7.00;;;;;18.31;54.92;100755.53;5036336;27;45516;-64
2022/05/11 01:48:21;;;;;;;;;8.00;8.00;;;;;18.32;54.71;100765.31;5045676;28;45238;-66
2022/05/11 01:50:47;;;;;;;;;7.00;7.00;;;;;18.27;54.83;100763.88;5073441;27;45531;-64
2022/05/11 01:53:13;;;;;;;;;7.00;5.33;;;;;18.24;55.45;100764.16;5057012;27;45334;-68
2022/05/11 01:55:39;;;;;;;;;9.33;6.67;;;;;18.20;55.19;100761.81;5056447;28;45788;-62
2022/05/11 01:58:07;;;;;;;;;8.00;6.00;;;;;18.14;55.41;100757.84;5055358;28;45407;-64
2022/05/11 02:00:33;;;;;;;;;7.00;5.00;;;;;18.11;55.66;100760.78;5056469;27;45294;-67
2022/05/11 02:02:59;;;;;;;;;5.33;5.33;;;;;18.09;55.51;100757.34;5056756;28;45407;-64
2022/05/11 02:08:09;;;;;;;;;1.67;1.67;;;;;18.05;55.30;100757.75;5056406;28;45343;-63
2022/05/11 02:10:35;;;;;;;;;7.00;5.67;;;;;18.02;55.39;100756.19;5056874;27;45252;-65
2022/05/11 02:13:00;;;;;;;;;8.67;7.00;;;;;18.07;55.10;100756.63;5057193;28;45289;-64
2022/05/11 02:15:27;;;;;;;;;7.67;6.00;;;;;18.09;55.10;100754.66;5056879;28;45555;-67
2022/05/11 02:17:53;;;;;;;;;6.67;6.67;;;;;18.12;54.88;100746.34;5055582;28;45443;-68
2022/05/11 02:20:19;;;;;;;;;7.00;6.67;;;;;18.16;54.83;100750.47;5056677;28;45331;-63
2022/05/11 02:22:47;;;;;;;;;5.33;5.33;;;;;18.22;54.78;100747.25;5056805;28;45433;-63
2022/05/11 02:25:15;;;;;;;;;4.67;4.00;;;;;18.25;54.68;100740.78;5056296;28;45453;-63
2022/05/11 02:27:41;;;;;;;;;6.00;5.00;;;;;18.34;54.37;100747.19;5055051;28;45387;-69
2022/05/11 02:30:12;;;;;;;;;6.33;5.00;;;;;18.30;54.32;100741.22;5072163;27;45363;-65
2022/05/11 02:32:38;;;;;;;;;5.00;4.00;;;;;18.35;54.44;100743.50;5067426;27;45238;-59
2022/05/11 02:35:13;;;;;;;;;4.33;4.33;;;;;18.37;54.20;100749.63;5070901;28;45247;-63
2022/05/11 02:37:52;;;;;;;;;9.00;8.00;;;;;18.35;54.57;100746.19;5055985;28;45987;-61
2022/05/11 02:40:25;;;;;;;;;8.33;6.67;;;;;18.32;54.39;100741.09;5052658;28;45480;-64
2022/05/11 02:42:51;;;;;;;;;7.33;6.33;;;;;18.32;54.14;100733.00;5056772;28;45508;-63
2022/05/11 02:45:18;;;;;;;;;6.67;6.67;;;;;18.27;54.35;100717.25;5072107;28;45500;-66
2022/05/11 02:47:45;;;;;;;;;4.00;4.00;;;;;18.38;54.41;100738.72;5072153;27;45329;-63
2022/05/11 02:50:15;;;;;;;;;9.67;8.67;;;;;18.38;54.12;100727.97;5035896;28;45417;-67
2022/05/11 02:52:40;;;;;;;;;8.67;8.00;;;;;18.39;54.36;100726.13;5052131;27;45524;-63
2022/05/11 02:55:06;;;;;;;;;8.00;8.00;;;;;18.40;54.72;100725.97;5060091;27;45480;-64
2022/05/11 02:57:32;;;;;;;;;8.00;8.00;;;;;18.34;54.57;100715.72;5071538;28;45516;-71
2022/05/11 02:59:59;;;;;;;;;5.00;5.00;;;;;18.35;54.27;100722.81;5071874;27;45508;-65
2022/05/11 03:02:25;;;;;;;;;5.00;5.00;;;;;18.31;54.66;100716.00;5072328;27;45885;-70
2022/05/11 03:04:51;;;;;;;;;7.33;6.00;;;;;18.34;54.55;100717.56;5073278;27;46023;-68
2022/05/11 03:07:17;;;;;;;;;7.00;5.00;;;;;18.31;54.33;100723.22;5071303;27;45362;-63
2022/05/11 03:09:42;;;;;;;;;7.33;7.33;;;;;18.31;54.65;100728.59;5066649;27;45437;-64
2022/05/11 03:12:08;;;;;;;;;9.00;8.33;;;;;18.24;54.92;100723.75;5072673;27;45571;-61
2022/05/11 03:14:33;;;;;;;;;9.67;5.67;;;;;18.17;55.28;100727.94;5073756;27;45328;-66
2022/05/11 03:16:59;;;;;;;;;8.00;8.00;;;;;18.11;55.29;100720.41;5073146;27;45621;-69
2022/05/11 03:19:26;;;;;;;;;7.00;6.00;;;;;18.09;55.61;100727.75;5044843;28;45925;-63
2022/05/11 03:21:52;;;;;;;;;6.33;6.33;;;;;18.04;55.47;100727.28;5070824;28;45387;-69
2022/05/11 03:24:18;;;;;;;;;10.00;7.33;;;;;17.99;55.69;100724.16;5073998;27;46397;-64
2022/05/11 03:26:43;;;;;;;;;7.00;7.00;;;;;17.98;55.39;100725.13;5072041;27;45399;-68
2022/05/11 03:29:09;;;;;;;;;8.00;6.67;;;;;17.96;55.74;100717.16;5052960;27;45503;-63
2022/05/11 03:31:38;;;;;;;;;5.00;5.00;;;;;17.99;55.65;100716.09;5071747;27;45443;-68
2022/05/11 03:36:50;;;;;;;;;9.33;8.00;;;;;18.06;55.54;100717.25;5057595;28;45160;-68
2022/05/11 03:39:16;;;;;;;;;12.67;9.33;;;;;18.10;55.37;100716.03;5065874;27;45244;-67
2022/05/11 03:41:45;;;;;;;;;6.00;6.00;;;;;18.02;54.79;100701.50;5074399;27;45556;-70
2022/05/11 03:44:11;;;;;;;;;8.00;6.33;;;;;18.11;55.46;100711.50;5072984;28;45410;-68
2022/05/11 03:46:36;;;;;;;;;9.33;8.67;;;;;18.10;55.17;100707.94;5075617;27;45396;-66
2022/05/11 03:49:02;;;;;;;;;8.00;6.33;;;;;18.12;55.53;100707.81;5069035;27;45350;-67
2022/05/11 03:51:27;;;;;;;;;12.00;6.33;;;;;18.14;55.39;100709.38;5072666;28;45296;-62
2022/05/11 03:53:53;;;;;;;;;6.67;6.00;;;;;18.16;55.39;100710.09;5061939;27;47140;-67
2022/05/11 03:56:18;;;;;;;;;10.67;7.00;;;;;18.18;55.35;100710.81;5070595;28;45230;-67
2022/05/11 03:58:45;;;;;;;;;8.67;8.67;;;;;18.10;55.70;100707.06;5070838;27;45271;-64
2022/05/11 04:01:11;;;;;;;;;9.00;9.00;;;;;18.05;55.71;100712.84;5066757;27;45393;-60
2022/05/11 04:03:37;;;;;;;;;8.00;8.00;;;;;18.06;55.46;100705.63;5077368;27;45486;-68
2022/05/11 04:06:02;;;;;;;;;8.33;7.00;;;;;18.05;55.78;100712.84;5079272;28;45556;-70
2022/05/11 04:08:28;;;;;;;;;9.33;8.33;;;;;18.02;55.68;100723.03;5077022;27;45521;-69
2022/05/11 04:10:53;;;;;;;;;8.67;8.67;;;;;18.01;55.55;100719.50;5039048;28;45442;-67
2022/05/11 04:13:18;;;;;;;;;10.67;8.00;;;;;18.07;55.78;100729.72;5061116;28;45424;-67
2022/05/11 04:15:47;;;;;;;;;8.33;7.00;;;;;18.13;55.48;100725.66;5078480;27;45348;-62
2022/05/11 04:18:13;;;;;;;;;7.00;7.00;;;;;18.13;55.71;100722.97;5071597;27;45267;-62
2022/05/11 04:20:38;;;;;;;;;14.67;12.67;;;;;18.11;55.91;100725.81;5066953;27;45295;-65
2022/05/11 04:23:03;;;;;;;;;21.00;18.67;;;;;18.05;55.70;100726.31;5050450;28;45567;-68
2022/05/11 04:25:29;;;;;;;;;25.67;25.00;;;;;18.06;55.82;100733.41;5068882;28;45343;-61
2022/05/11 04:27:54;;;;;;;;;29.33;27.00;;;;;18.07;56.00;100739.63;5058504;28;45370;-61
2022/05/11 04:30:26;;;;;;;;;28.67;24.67;;;;;17.98;55.98;100726.00;5070477;28;45636;-64
2022/05/11 04:32:52;;;;;;;;;30.00;28.00;;;;;18.01;56.10;100721.34;5073748;27;45540;-64
2022/05/11 04:35:17;;;;;;;;;25.33;24.00;;;;;18.07;56.04;100729.72;5074587;27;45237;-64
2022/05/11 04:37:44;;;;;;;;;28.33;26.00;;;;;18.07;55.90;100721.66;5075930;27;45337;-61
2022/05/11 04:40:11;;;;;;;;;31.00;26.67;;;;;18.06;55.75;100727.16;5070407;27;45602;-62
2022/05/11 04:42:37;;;;;;;;;27.00;25.33;;;;;18.15;55.93;100729.94;5058902;28;45463;-61
2022/05/11 04:45:03;;;;;;;;;25.33;22.33;;;;;18.14;55.81;100724.69;5037919;28;45497;-67
2022/05/11 04:47:28;;;;;;;;;28.33;27.00;;;;;18.14;55.64;100725.53;5042543;28;45523;-68
2022/05/11 04:49:53;;;;;;;;;26.00;23.00;;;;;18.22;55.78;100728.41;5063554;27;45506;-67
2022/05/11 04:52:19;;;;;;;;;26.33;24.67;;;;;18.19;55.87;100709.81;5076001;27;45490;-68
2022/05/11 04:54:50;;;;;;;;;20.33;20.33;;;;;18.22;55.92;100723.00;5076332;28;45440;-70
2022/05/11 04:57:18;;;;;;;;;31.67;26.33;;;;;18.25;55.93;100728.16;5062594;27;45218;-70
2022/05/11 04:59:43;;;;;;;;;23.00;21.00;;;;;18.24;55.87;100707.63;5074599;27;45386;-63
2022/05/11 05:02:22;;;;;;;;;20.00;20.00;;;;;18.26;55.58;100708.31;5063321;27;46141;-69
2022/05/11 05:04:49;;;;;;;;;25.00;18.67;;;;;18.30;55.47;100722.38;5063079;28;45414;-63
2022/05/11 05:07:15;;;;;;;;;23.67;19.67;;;;;18.32;55.53;100716.84;5064280;28;45495;-69
2022/05/11 05:09:44;;;;;;;;;34.67;24.67;;;;;18.36;55.56;100723.66;5056696;28;45622;-64
2022/05/11 05:12:11;;;;;;;;;24.67;20.00;;;;;18.42;55.48;100726.69;5055997;28;45577;-62
2022/05/11 05:14:38;;;;;;;;;22.00;21.67;;;;;18.38;55.23;100710.94;5054056;28;45346;-69
2022/05/11 05:17:05;;;;;;;;;19.00;17.00;;;;;18.47;54.84;100715.50;5057695;28;45220;-66
2022/05/11 05:19:30;;;;;;;;;20.67;19.00;;;;;18.44;54.92;100719.34;5056789;28;45557;-71
2022/05/11 05:21:57;;;;;;;;;12.67;12.00;;;;;18.49;54.69;100716.22;5051668;28;45381;-68
2022/05/11 05:24:23;;;;;;;;;17.67;15.67;;;;;18.45;54.60;100706.72;5057537;28;45456;-67
2022/05/11 05:26:48;;;;;;;;;16.33;12.00;;;;;18.50;54.68;100718.81;5058089;28;45360;-71
2022/05/11 05:31:59;;;;;;;;;15.33;13.67;;;;;18.50;55.01;100717.97;5057381;28;45863;-65
2022/05/11 05:34:24;;;;;;;;;16.00;15.00;;;;;18.51;54.84;100717.81;5066269;27;45328;-63
2022/05/11 05:36:50;;;;;;;;;12.67;11.33;;;;;18.53;54.34;100715.84;5057248;28;45452;-66
2022/05/11 05:39:15;;;;;;;;;12.00;11.67;;;;;18.52;54.56;100724.06;5075757;28;45402;-62
2022/05/11 05:41:41;;;;;;;;;13.67;13.33;;;;;18.57;54.64;100721.81;5068454;28;46379;-60
2022/05/11 05:44:07;;;;;;;;;10.50;10.00;;;;;18.51;54.39;100712.44;5069550;27;45432;-70
2022/05/11 05:46:34;;;;;;;;;10.33;8.67;;;;;18.56;54.46;100725.50;5057535;28;45424;-68
2022/05/11 05:49:00;;;;;;;;;11.67;10.67;;;;;18.47;54.13;100734.38;5072571;27;45311;-67
2022/05/11 05:51:27;;;;;;;;;14.00;13.33;;;;;18.38;54.30;100729.81;5056915;28;46009;-63
2022/05/11 05:53:52;;;;;;;;;11.33;11.33;;;;;18.32;54.37;100736.56;5056568;27;45316;-60
2022/05/11 05:56:18;;;;;;;;;10.67;10.00;;;;;18.23;54.58;100732.84;5056683;28;45375;-67
2022/05/11 05:58:46;;;;;;;;;12.33;11.00;;;;;18.23;54.98;100734.66;5057142;28;45500;-64
2022/05/11 06:01:14;;;;;;;;;10.00;10.00;;;;;18.18;55.27;100728.81;5047683;27;47616;-66
2022/05/11 06:03:40;;;;;;;;;13.67;8.00;;;;;18.17;55.05;100727.94;5036161;28;45208;-66
2022/05/11 06:06:07;;;;;;;;;13.00;13.00;;;;;18.21;54.94;100744.69;5063330;28;45410;-59
2022/05/11 06:08:33;;;;;;;;;13.67;12.00;;;;;18.18;55.38;100743.13;5070550;28;45612;-60
2022/05/11 06:10:59;;;;;;;;;11.00;9.00;;;;;18.13;55.82;100733.75;5076120;28;45339;-53
2022/05/11 06:13:26;;;;;;;;;9.33;9.33;;;;;18.17;55.98;100740.56;5076377;28;45375;-60
2022/05/11 06:15:53;;;;;;;;;9.67;9.67;;;;;18.22;55.55;100741.00;5077033;27;45423;-52
2022/05/11 06:18:20;;;;;;;;;11.33;11.33;;;;;18.26;55.32;100732.56;5076773;27;45381;-61
2022/05/11 06:20:46;;;;;;;;;15.67;12.67;;;;;18.27;55.31;100736.97;5070409;27;47977;-67
2022/05/11 06:23:12;;;;;;;;;12.33;12.33;;;;;18.32;54.64;100738.38;5053280;28;45658;-64
2022/05/11 06:25:38;;;;;;;;;12.33;12.33;;;;;18.34;54.50;100733.72;5069743;28;45485;-61
2022/05/11 06:28:06;;;;;;;;;16.00;12.67;;;;;18.24;54.73;100721.06;5053234;28;45645;-65
2022/05/11 06:30:33;;;;;;;;;13.00;11.33;;;;;18.29;54.59;100734.13;5053717;28;45598;-65
2022/05/11 06:33:00;;;;;;;;;14.00;9.67;;;;;18.29;54.35;100731.44;5069364;27;45395;-64
2022/05/11 06:35:28;;;;;;;;;10.00;10.00;;;;;18.27;54.33;100736.97;5052780;28;45519;-63
2022/05/11 06:37:54;;;;;;;;;11.67;11.67;;;;;18.30;54.32;100735.84;5056223;28;45428;-65
2022/05/11 06:40:21;;;;;;;;;12.33;9.33;;;;;18.32;54.30;100735.69;5055771;28;46109;-60
2022/05/11 06:42:48;;;;;;;;;11.33;11.33;;;;;18.31;54.46;100725.91;5056289;28;45401;-64
2022/05/11 06:45:14;;;;;;;;;14.00;12.33;;;;;18.36;54.76;100740.72;5071841;27;45352;-60
2022/05/11 06:47:40;;;;;;;;;16.67;14.67;;;;;18.40;54.35;100727.81;5054614;27;45557;-66
2022/05/11 06:50:06;;;;;;;;;11.67;11.00;;;;;18.43;54.35;100727.53;5055642;28;45391;-61
2022/05/11 06:52:32;;;;;;;;;15.00;15.00;;;;;18.52;54.07;100726.75;5071460;27;45578;-62
2022/05/11 07:00:30;;;;;;;;;12.67;10.67;;;;;18.51;53.39;100730.44;5055496;28;45373;-64
2022/05/11 07:02:56;;;;;;;;;17.00;15.00;;;;;18.55;53.79;100731.88;5055399;28;45426;-66
2022/05/11 07:05:21;;;;;;;;;18.00;11.67;;;;;18.52;53.33;100732.16;5054362;27;45450;-63
2022/05/11 07:07:47;;;;;;;;;11.00;11.00;;;;;18.58;53.41;100728.91;5056478;28;45342;-61
2022/05/11 07:10:13;;;;;;;;;13.00;11.33;;;;;18.62;53.22;100729.47;5055484;28;45858;-66
2022/05/11 07:12:45;;;;;;;;;9.00;9.00;;;;;18.62;53.12;100721.41;5071170;27;45912;-65
2022/05/11 07:15:12;;;;;;;;;10.67;10.33;;;;;18.71;52.19;100734.09;5054165;28;45353;-62
2022/05/11 07:17:52;;;;;;;;;13.33;9.33;;;;;18.69;51.93;100734.25;5054209;27;45619;-66
2022/05/11 07:20:20;;;;;;;;;10.33;6.67;;;;;18.72;51.69;100735.81;5055422;28;46029;-61
2022/05/11 07:22:46;;;;;;;;;11.00;11.00;;;;;18.76;51.87;100731.88;5054303;28;45532;-64
2022/05/11 07:25:16;;;;;;;;;8.33;7.00;;;;;18.81;51.65;100725.06;5056008;28;45419;-64
2022/05/11 07:27:44;;;;;;;;;11.00;11.00;;;;;18.85;51.88;100726.50;5055914;28;45326;-65
2022/05/11 07:30:13;;;;;;;;;13.67;9.67;;;;;18.89;51.44;100728.94;5055401;28;45416;-63
2022/05/11 07:32:39;;;;;;;;;8.33;7.33;;;;;18.89;51.34;100731.66;5057149;28;45395;-64
2022/05/11 07:35:06;;;;;;;;;12.67;12.67;;;;;18.88;51.21;100728.09;5057967;28;45178;-63
2022/05/11 07:37:32;;;;;;;;;9.33;7.00;;;;;18.89;51.31;100721.72;5058964;27;45560;-62
2022/05/11 07:39:59;;;;;;;;;10.00;10.00;;;;;18.91;51.63;100726.97;5063080;27;48134;-64
2022/05/11 07:42:24;;;;;;;;;10.67;10.67;;;;;18.95;51.17;100731.09;5066970;27;45545;-62
2022/05/11 07:44:50;;;;;;;;;12.00;10.67;;;;;18.91;51.20;100721.56;5079398;28;45357;-63
2022/05/11 07:47:16;;;;;;;;;11.00;11.00;;;;;19.01;51.50;100730.53;5064905;28;45438;-64
2022/05/11 07:49:41;;;;;;;;;14.67;10.00;;;;;19.03;51.13;100723.19;5058339;28;46177;-64
2022/05/11 07:52:08;;;;;;;;;6.33;6.33;;;;;19.07;50.42;100725.47;5057219;28;45407;-63
2022/05/11 07:54:34;;;;;;;;;10.33;9.67;;;;;19.06;50.68;100718.34;5058123;28;45326;-61
2022/05/11 07:59:52;;;;;;;;;13.00;9.67;;;;;19.15;50.10;100724.78;5073344;28;45829;-67
2022/05/11 08:02:18;;;;;;;;;12.00;10.33;;;;;19.26;50.23;100732.72;5075192;27;45360;-64
2022/05/11 08:04:43;;;;;;;;;10.00;10.00;;;;;19.27;50.56;100725.50;5058388;28;45506;-65
2022/05/11 08:07:10;;;;;;;;;10.33;9.00;;;;;19.26;50.30;100718.41;5074243;28;45201;-64
2022/05/11 08:09:36;;;;;;;;;11.00;9.67;;;;;19.41;49.66;100728.66;5062077;27;46064;-66
2022/05/11 08:12:02;;;;;;;;;9.00;5.33;;;;;19.68;48.39;100729.88;5057877;28;45489;-63
2022/05/11 08:14:27;;;;;;;;;9.00;6.33;;;;;20.15;47.58;100724.56;5058027;28;45496;-62
2022/05/11 08:16:53;;;;;;;;;10.00;9.67;;;;;20.90;46.22;100726.38;5038917;28;45525;-63
2022/05/11 08:19:20;;;;;;;;;6.67;6.67;;;;;21.26;45.09;100710.28;5063319;28;48078;-67
2022/05/11 08:21:48;;;;;;;;;8.33;8.33;;;;;21.34;44.99;100710.34;5058820;27;45474;-67
2022/05/11 08:24:13;;;;;;;;;8.00;7.67;;;;;21.39;45.37;100710.78;5069906;28;45354;-63
2022/05/11 08:26:40;;;;;;;;;8.00;8.00;;;;;21.68;44.34;100715.97;5073281;27;45195;-64
2022/05/11 08:29:06;;;;;;;;;7.00;7.00;;;;;21.97;44.01;100713.84;5056812;27;46302;-62
2022/05/11 08:34:15;;;;;;;;;9.00;7.00;;;;;22.72;43.03;100708.81;5077457;28;45313;-67
2022/05/11 08:36:41;;;;;;;;;8.25;7.25;;;;;23.12;41.99;100710.03;5076190;27;45220;-62
2022/05/11 08:39:06;;;;;;;;;6.33;6.33;;;;;23.56;40.40;100716.06;5071364;27;45391;-68
2022/05/11 08:41:48;;;;;;;;;8.00;7.67;;;;;23.78;38.99;100703.75;5055375;28;45173;-64
2022/05/11 08:44:17;;;;;;;;;6.75;5.00;;;;;24.12;39.22;100719.88;5036162;28;45364;-62
2022/05/11 08:47:04;;;;;;;;;3.50;3.50;;;;;24.52;38.13;100712.72;5037553;28;45295;-63
2022/05/11 08:50:04;;;;;;;;;3.00;3.00;;;;;24.83;37.20;100712.81;5037053;28;45411;-64
2022/05/11 08:52:35;;;;;;;;;5.40;5.00;;;;;25.15;35.75;100711.88;5068250;27;47873;-66
2022/05/11 08:55:09;;;;;;;;;6.00;5.75;;;;;25.39;35.78;100710.84;5058076;27;45378;-64
2022/05/11 08:57:36;;;;;;;;;4.00;4.00;;;;;25.49;36.17;100695.16;5076111;27;45463;-65
2022/05/11 09:00:10;;;;;;;;;1.50;1.25;;;;;25.75;31.95;100703.84;5077495;27;46460;-64
2022/05/11 09:03:07;;;;;;;;;5.50;3.50;;;;;26.00;34.14;100699.03;5077527;28;45423;-65
2022/05/11 09:05:34;;;;;;;;;3.25;3.25;;;;;26.24;33.89;100680.78;5077775;27;45439;-61
2022/05/11 09:07:59;;;;;;;;;4.50;3.00;;;;;26.42;33.88;100695.78;5078175;27;45577;-63
2022/05/11 09:10:29;;;;;;;;;3.00;3.00;;;;;26.68;33.97;100702.66;5076937;28;48000;-63
2022/05/11 09:13:02;;;;;;;;;3.00;3.00;;;;;26.92;32.75;100691.44;5078114;27;45437;-61
2022/05/11 09:15:49;;;;;;;;;4.40;3.00;;;;;27.19;31.07;100689.09;5078044;27;45181;-64
2022/05/11 09:18:15;;;;;;;;;3.75;3.75;;;;;27.25;31.19;100680.13;5093828;27;45410;-62
2022/05/11 09:20:50;;;;;;;;;3.00;3.00;;;;;27.47;30.62;100687.31;5068004;27;45754;-64
2022/05/11 09:23:31;;;;;;;;;1.20;1.20;;;;;27.43;28.43;100699.66;5056029;28;45439;-64
2022/05/11 09:26:00;;;;;;;;;5.60;3.80;;;;;27.55;30.34;100691.81;5057343;27;45501;-63
2022/05/11 09:28:29;;;;;;;;;2.20;1.80;;;;;27.60;29.97;100671.03;5058212;27;45308;-66
2022/05/11 09:31:01;;;;;;;;;5.80;5.80;;;;;27.88;28.36;100693.03;5072605;27;47707;-69
2022/05/11 09:33:37;;;;;;;;;4.60;2.20;;;;;28.04;28.68;100702.00;5057710;28;45509;-64
2022/05/11 09:36:03;;;;;;;;;2.00;2.00;;;;;28.09;28.31;100694.88;5057554;28;45375;-65
2022/05/11 09:38:36;;;;;;;;;1.50;1.50;;;;;28.09;28.18;100694.03;5056000;27;45471;-69
2022/05/11 09:41:13;;;;;;;;;2.80;2.80;;;;;28.34;29.80;100691.72;5037202;28;45768;-65
2022/05/11 09:43:49;;;;;;;;;2.00;2.00;;;;;28.54;29.30;100684.53;5040426;28;45491;-63
2022/05/11 09:46:26;;;;;;;;;4.80;2.40;;;;;28.68;28.45;100696.38;5066353;28;45536;-60
2022/05/11 09:49:15;;;;;;;;;2.40;2.40;;;;;28.71;26.59;100694.09;5063833;28;45243;-63
2022/05/11 09:51:45;;;;;;;;;5.60;3.20;;;;;28.80;28.32;100686.56;5056464;28;45443;-62
2022/05/11 09:54:25;;;;;;;;;4.60;3.60;;;;;29.00;27.83;100687.53;5072085;28;45328;-64
2022/05/11 09:57:08;;;;;;;;;4.80;3.60;;;;;29.05;28.32;100681.44;5057441;28;45444;-66
2022/05/11 09:59:39;;;;;;;;;3.20;2.20;;;;;29.00;28.62;100665.63;5056937;28;45501;-67
2022/05/11 10:02:13;;;;;;;;;3.00;3.00;;;;;28.96;28.50;100671.72;5056596;27;45448;-68
2022/05/11 10:04:44;;;;;;;;;3.60;3.40;;;;;28.87;28.09;100670.16;5077686;27;45476;-66
2022/05/11 10:07:14;;;;;;;;;3.00;3.00;;;;;28.82;28.66;100675.41;5054420;28;45505;-70
2022/05/11 10:09:45;;;;;;;;;4.00;4.00;;;;;28.93;28.18;100672.97;5056939;28;45623;-68
2022/05/11 10:12:16;;;;;;;;;0.80;0.20;;;;;28.80;28.74;100664.66;5055192;28;48009;-62
2022/05/11 10:23:32;;;;;;;;;4.00;2.80;;;;;27.81;29.20;100675.72;5056518;28;45503;-61
2022/05/11 10:26:07;;;;;;;;;4.40;3.00;;;;;27.24;30.20;100675.72;5056593;28;45311;-62
2022/05/11 10:28:50;;;;;;;;;3.20;2.40;;;;;26.91;30.82;100678.00;5057217;28;45463;-63
2022/05/11 10:31:38;;;;;;;;;2.20;2.20;;;;;26.51;31.49;100685.63;5057304;28;45345;-67
2022/05/11 10:34:16;;;;;;;;;2.00;2.00;;;;;26.13;32.20;100676.63;5074424;27;45652;-64
2022/05/11 10:36:44;;;;;;;;;3.60;3.00;;;;;25.81;32.13;100675.88;5059950;28;45400;-64
2022/05/11 10:39:28;;;;;;;;;4.60;2.60;;;;;25.50;32.92;100672.34;5062998;27;45484;-66
2022/05/11 10:41:58;;;;;;;;;3.00;3.00;;;;;25.42;33.14;100670.53;5069317;28;47010;-65
2022/05/11 10:44:36;;;;;;;;;5.25;3.00;;;;;25.17;33.69;100679.88;5075559;27;45345;-65
2022/05/11 10:47:23;;;;;;;;;3.60;3.60;;;;;25.02;33.97;100685.22;5074511;27;45403;-66
2022/05/11 10:50:07;;;;;;;;;3.00;3.00;;;;;24.93;34.40;100661.75;5068571;28;45258;-69
2022/05/11 10:52:51;;;;;;;;;3.00;3.00;;;;;24.86;34.86;100671.63;5053328;28;46718;-61
2022/05/11 10:55:30;;;;;;;;;2.00;1.00;;;;;24.76;35.28;100680.03;5057764;28;46610;-68
2022/05/11 10:58:14;;;;;;;;;3.25;3.25;;;;;24.55;36.23;100675.16;5055201;28;45530;-70
2022/05/11 11:00:55;;;;;;;;;4.00;4.00;;;;;24.44;36.04;100659.22;5055984;28;45456;-73
2022/05/11 11:03:20;;;;;;;;;5.00;5.00;;;;;24.49;36.10;100659.56;5055893;28;45939;-71
2022/05/11 11:09:35;;;;;;;;;2.50;2.50;;;;;24.45;36.46;100665.50;5050313;28;45335;-69
2022/05/11 11:12:16;;;;;;;;;6.75;2.25;;;;;24.41;36.73;100662.28;5060272;27;45433;-70
2022/05/11 11:14:45;;;;;;;;;2.00;2.00;;;;;24.37;36.45;100666.38;5063909;28;45484;-66
2022/05/11 11:17:18;;;;;;;;;4.50;3.50;;;;;24.35;36.76;100654.81;5069232;27;46178;-64
2022/05/11 11:19:49;;;;;;;;;2.00;2.00;;;;;24.40;36.79;100668.75;5072268;27;45669;-63
2022/05/11 11:22:15;;;;;;;;;4.25;4.25;;;;;24.34;37.33;100661.28;5064314;28;45575;-73
2022/05/11 11:24:43;;;;;;;;;4.25;4.25;;;;;24.44;37.21;100636.63;5069275;28;46468;-66
2022/05/11 11:27:10;;;;;;;;;3.00;3.00;;;;;24.55;37.15;100653.41;5057983;28;45541;-68
2022/05/11 11:30:13;;;;;;;;;3.50;2.25;;;;;24.54;37.39;100638.13;5062699;27;45491;-69
2022/05/11 11:33:10;;;;;;;;;5.00;3.50;;;;;24.56;37.49;100649.66;5080038;27;45177;-66
2022/05/11 11:35:40;;;;;;;;;4.00;3.00;;;;;24.65;36.99;100651.34;5063381;27;45454;-72
2022/05/11 11:38:06;;;;;;;;;3.75;3.75;;;;;24.66;37.29;100636.72;5058651;27;45332;-69
2022/05/11 11:40:34;;;;;;;;;3.75;3.25;;;;;24.75;37.17;100632.09;5056963;28;45202;-69
2022/05/11 11:46:04;;;;;;;;;1.50;1.50;;;;;24.97;36.92;100625.84;5075044;28;45264;-61
2022/05/11 11:48:31;;;;;;;;;2.25;2.25;;;;;24.98;36.38;100619.38;5079296;27;45395;-66
2022/05/11 11:51:00;;;;;;;;;1.80;1.80;;;;;25.06;36.27;100620.41;5068472;27;45436;-65
2022/05/11 11:53:55;;;;;;;;;2.25;2.25;;;;;25.14;36.04;100621.22;5061417;27;46943;-69
2022/05/11 11:56:24;;;;;;;;;4.00;3.00;;;;;25.25;35.13;100617.19;5049491;28;45491;-66
2022/05/11 11:59:08;;;;;;;;;4.25;2.00;;;;;25.32;35.18;100620.06;5073157;28;46454;-63
2022/05/11 12:01:37;;;;;;;;;1.20;1.00;;;;;25.40;34.97;100617.28;5050635;28;45388;-60
2022/05/11 12:04:11;;;;;;;;;1.00;1.00;;;;;25.37;35.00;100607.59;5057161;27;45461;-68